sensor_id;sensor_type;location;lat;lon;timestamp;pressure;altitude;pressure_sealevel;temperature;humidity
43711;BME280;29309;42.682;23.372;2023-02-19T00:00:54;95486.66;;;7.48;55.27
43711;BME280;29309;42.682;23.372;2023-02-19T00:03:20;95484.22;;;7.42;55.18
43711;BME280;29309;42.682;23.372;2023-02-19T00:05:45;95492.50;;;7.42;55.54
43711;BME280;29309;42.682;23.372;2023-02-19T00:08:11;95486.97;;;7.42;55.79
43711;BME280;29309;42.682;23.372;2023-02-19T00:10:36;95491.66;;;7.39;55.61
43711;BME280;29309;42.682;23.372;2023-02-19T00:13:01;95473.50;;;7.36;55.90
43711;BME280;29309;42.682;23.372;2023-02-19T00:15:27;95482.53;;;7.37;56.03
43711;BME280;29309;42.682;23.372;2023-02-19T00:17:52;95482.97;;;7.33;56.25
43711;BME280;29309;42.682;23.372;2023-02-19T00:20:18;95481.41;;;7.30;56.09
43711;BME280;29309;42.682;23.372;2023-02-19T00:22:43;95480.97;;;7.24;56.48
43711;BME280;29309;42.682;23.372;2023-02-19T00:25:09;95487.84;;;7.23;56.31
43711;BME280;29309;42.682;23.372;2023-02-19T00:27:34;95479.31;;;7.10;56.69
43711;BME280;29309;42.682;23.372;2023-02-19T00:29:59;95465.97;;;7.06;57.38
43711;BME280;29309;42.682;23.372;2023-02-19T00:32:25;95468.00;;;7.06;57.05
43711;BME280;29309;42.682;23.372;2023-02-19T00:34:50;95469.06;;;7.01;56.99
43711;BME280;29309;42.682;23.372;2023-02-19T00:37:16;95462.22;;;7.02;57.55
43711;BME280;29309;42.682;23.372;2023-02-19T00:39:41;95475.16;;;6.99;57.15
43711;BME280;29309;42.682;23.372;2023-02-19T00:42:06;95461.81;;;6.96;57.38
43711;BME280;29309;42.682;23.372;2023-02-19T00:44:32;95459.50;;;6.92;57.94
43711;BME280;29309;42.682;23.372;2023-02-19T00:46:57;95466.25;;;6.79;57.97
43711;BME280;29309;42.682;23.372;2023-02-19T00:49:23;95459.72;;;6.75;58.07
43711;BME280;29309;42.682;23.372;2023-02-19T00:51:51;95444.47;;;6.74;58.87
43711;BME280;29309;42.682;23.372;2023-02-19T00:54:17;95445.53;;;6.69;58.65
43711;BME280;29309;42.682;23.372;2023-02-19T00:56:43;95442.06;;;6.59;59.05
43711;BME280;29309;42.682;23.372;2023-02-19T00:59:09;95446.44;;;6.52;59.55
43711;BME280;29309;42.682;23.372;2023-02-19T01:01:34;95441.53;;;6.51;59.80
43711;BME280;29309;42.682;23.372;2023-02-19T01:04:00;95443.56;;;6.40;60.08
43711;BME280;29309;42.682;23.372;2023-02-19T01:06:25;95451.75;;;6.29;60.37
43711;BME280;29309;42.682;23.372;2023-02-19T01:08:51;95445.50;;;6.28;60.55
43711;BME280;29309;42.682;23.372;2023-02-19T01:11:17;95455.19;;;6.29;60.54
43711;BME280;29309;42.682;23.372;2023-02-19T01:13:43;95454.91;;;6.35;60.30
43711;BME280;29309;42.682;23.372;2023-02-19T01:16:14;95455.34;;;6.31;60.13
43711;BME280;29309;42.682;23.372;2023-02-19T01:18:41;95441.56;;;6.31;60.32
43711;BME280;29309;42.682;23.372;2023-02-19T01:21:10;95435.47;;;6.33;59.75
43711;BME280;29309;42.682;23.372;2023-02-19T01:23:36;95438.81;;;6.31;60.11
43711;BME280;29309;42.682;23.372;2023-02-19T01:26:07;95445.78;;;6.32;59.74
43711;BME280;29309;42.682;23.372;2023-02-19T01:28:33;95447.09;;;6.31;59.97
43711;BME280;29309;42.682;23.372;2023-02-19T01:31:01;95461.31;;;6.28;60.24
43711;BME280;29309;42.682;23.372;2023-02-19T01:33:26;95466.09;;;6.27;60.47
43711;BME280;29309;42.682;23.372;2023-02-19T01:35:52;95452.03;;;6.23;60.63
43711;BME280;29309;42.682;23.372;2023-02-19T01:38:17;95460.16;;;6.21;60.42
43711;BME280;29309;42.682;23.372;2023-02-19T01:40:43;95461.06;;;6.14;60.40
43711;BME280;29309;42.682;23.372;2023-02-19T01:43:14;95466.84;;;6.18;60.29
43711;BME280;29309;42.682;23.372;2023-02-19T01:45:44;95478.59;;;6.19;60.38
43711;BME280;29309;42.682;23.372;2023-02-19T01:48:17;95481.66;;;6.13;60.51
43711;BME280;29309;42.682;23.372;2023-02-19T01:50:52;95488.75;;;5.97;61.07
43711;BME280;29309;42.682;23.372;2023-02-19T01:53:23;95479.63;;;5.94;61.46
43711;BME280;29309;42.682;23.372;2023-02-19T01:55:53;95488.63;;;5.95;61.48
43711;BME280;29309;42.682;23.372;2023-02-19T01:58:21;95485.88;;;5.95;61.44
43711;BME280;29309;42.682;23.372;2023-02-19T02:00:47;95488.19;;;5.89;61.18
43711;BME280;29309;42.682;23.372;2023-02-19T02:03:12;95475.09;;;5.80;62.01
43711;BME280;29309;42.682;23.372;2023-02-19T02:05:46;95483.81;;;5.76;61.75
43711;BME280;29309;42.682;23.372;2023-02-19T02:08:14;95484.41;;;5.75;62.00
43711;BME280;29309;42.682;23.372;2023-02-19T02:10:59;95481.78;;;5.77;62.25
43711;BME280;29309;42.682;23.372;2023-02-19T02:13:28;95486.41;;;5.65;62.88
43711;BME280;29309;42.682;23.372;2023-02-19T02:24:24;95484.09;;;5.80;62.34
43711;BME280;29309;42.682;23.372;2023-02-19T02:32:39;95482.22;;;5.83;62.63
43711;BME280;29309;42.682;23.372;2023-02-19T02:35:11;95478.03;;;5.82;62.83
43711;BME280;29309;42.682;23.372;2023-02-19T02:37:39;95483.53;;;5.82;62.27
43711;BME280;29309;42.682;23.372;2023-02-19T02:40:07;95480.66;;;5.89;62.19
43711;BME280;29309;42.682;23.372;2023-02-19T02:42:37;95481.22;;;5.88;62.26
43711;BME280;29309;42.682;23.372;2023-02-19T02:45:25;95471.19;;;5.83;62.01
43711;BME280;29309;42.682;23.372;2023-02-19T02:56:15;95474.69;;;6.03;62.01
43711;BME280;29309;42.682;23.372;2023-02-19T02:58:43;95474.09;;;6.04;61.84
43711;BME280;29309;42.682;23.372;2023-02-19T03:01:17;95481.66;;;6.04;62.06
43711;BME280;29309;42.682;23.372;2023-02-19T03:04:10;95477.44;;;6.12;61.60
43711;BME280;29309;42.682;23.372;2023-02-19T03:06:36;95487.16;;;6.13;61.07
43711;BME280;29309;42.682;23.372;2023-02-19T03:09:13;95492.69;;;6.13;61.40
43711;BME280;29309;42.682;23.372;2023-02-19T03:11:44;95499.06;;;6.06;61.38
43711;BME280;29309;42.682;23.372;2023-02-19T03:14:45;95503.69;;;5.94;61.31
43711;BME280;29309;42.682;23.372;2023-02-19T03:17:43;95497.63;;;5.86;61.55
43711;BME280;29309;42.682;23.372;2023-02-19T03:20:33;95506.88;;;5.81;62.05
43711;BME280;29309;42.682;23.372;2023-02-19T03:23:00;95504.69;;;5.79;61.83
43711;BME280;29309;42.682;23.372;2023-02-19T03:25:29;95512.38;;;5.81;61.82
43711;BME280;29309;42.682;23.372;2023-02-19T03:28:15;95517.59;;;5.77;62.06
43711;BME280;29309;42.682;23.372;2023-02-19T03:30:48;95517.59;;;5.77;62.03
43711;BME280;29309;42.682;23.372;2023-02-19T03:33:17;95520.91;;;5.66;62.01
43711;BME280;29309;42.682;23.372;2023-02-19T03:36:03;95522.34;;;5.57;62.67
43711;BME280;29309;42.682;23.372;2023-02-19T03:38:38;95529.47;;;5.60;62.56
43711;BME280;29309;42.682;23.372;2023-02-19T03:41:32;95530.75;;;5.59;62.45
43711;BME280;29309;42.682;23.372;2023-02-19T03:44:16;95536.53;;;5.54;63.64
43711;BME280;29309;42.682;23.372;2023-02-19T03:49:17;95538.53;;;5.34;63.80
43711;BME280;29309;42.682;23.372;2023-02-19T03:52:03;95541.41;;;5.26;63.95
43711;BME280;29309;42.682;23.372;2023-02-19T03:54:50;95544.16;;;5.26;63.75
43711;BME280;29309;42.682;23.372;2023-02-19T03:57:25;95540.34;;;5.12;64.63
43711;BME280;29309;42.682;23.372;2023-02-19T04:00:04;95537.91;;;5.16;64.56
43711;BME280;29309;42.682;23.372;2023-02-19T04:02:48;95547.91;;;5.21;64.70
43711;BME280;29309;42.682;23.372;2023-02-19T04:05:26;95550.09;;;5.23;64.40
43711;BME280;29309;42.682;23.372;2023-02-19T04:07:56;95551.13;;;5.27;64.57
43711;BME280;29309;42.682;23.372;2023-02-19T04:10:25;95545.50;;;5.35;63.98
43711;BME280;29309;42.682;23.372;2023-02-19T04:12:56;95551.44;;;5.31;64.27
43711;BME280;29309;42.682;23.372;2023-02-19T04:15:26;95551.88;;;5.37;64.24
43711;BME280;29309;42.682;23.372;2023-02-19T04:17:57;95555.34;;;5.38;64.01
43711;BME280;29309;42.682;23.372;2023-02-19T04:20:26;95558.69;;;5.36;64.08
43711;BME280;29309;42.682;23.372;2023-02-19T04:22:54;95556.50;;;5.35;63.96
43711;BME280;29309;42.682;23.372;2023-02-19T04:25:20;95553.59;;;5.33;64.15
43711;BME280;29309;42.682;23.372;2023-02-19T04:27:47;95556.50;;;5.35;64.32
43711;BME280;29309;42.682;23.372;2023-02-19T04:30:13;95551.44;;;5.31;64.49
43711;BME280;29309;42.682;23.372;2023-02-19T04:32:38;95557.81;;;5.34;64.53
43711;BME280;29309;42.682;23.372;2023-02-19T04:35:04;95559.69;;;5.31;64.56
43711;BME280;29309;42.682;23.372;2023-02-19T04:37:30;95561.13;;;5.32;64.51
43711;BME280;29309;42.682;23.372;2023-02-19T04:39:55;95557.94;;;5.36;64.72
43711;BME280;29309;42.682;23.372;2023-02-19T04:42:21;95573.16;;;5.37;64.53
43711;BME280;29309;42.682;23.372;2023-02-19T04:44:46;95569.53;;;5.34;64.40
43711;BME280;29309;42.682;23.372;2023-02-19T04:47:12;95565.34;;;5.33;64.63
43711;BME280;29309;42.682;23.372;2023-02-19T04:49:37;95568.41;;;5.37;64.11
43711;BME280;29309;42.682;23.372;2023-02-19T04:52:03;95564.78;;;5.35;64.33
43711;BME280;29309;42.682;23.372;2023-02-19T04:54:28;95570.84;;;5.33;64.07
43711;BME280;29309;42.682;23.372;2023-02-19T04:56:53;95571.91;;;5.11;65.20
43711;BME280;29309;42.682;23.372;2023-02-19T04:59:19;95570.63;;;5.12;65.40
43711;BME280;29309;42.682;23.372;2023-02-19T05:01:44;95577.72;;;5.15;65.22
43711;BME280;29309;42.682;23.372;2023-02-19T05:04:10;95573.38;;;5.12;65.42
43711;BME280;29309;42.682;23.372;2023-02-19T05:06:35;95576.56;;;5.18;65.43
43711;BME280;29309;42.682;23.372;2023-02-19T05:09:01;95580.78;;;5.19;65.40
43711;BME280;29309;42.682;23.372;2023-02-19T05:11:26;95572.97;;;5.25;64.98
43711;BME280;29309;42.682;23.372;2023-02-19T05:13:54;95578.47;;;5.25;65.39
43711;BME280;29309;42.682;23.372;2023-02-19T05:16:19;95573.81;;;5.18;65.23
43711;BME280;29309;42.682;23.372;2023-02-19T05:18:45;95582.56;;;5.24;65.47
43711;BME280;29309;42.682;23.372;2023-02-19T05:21:11;95577.34;;;5.28;65.41
43711;BME280;29309;42.682;23.372;2023-02-19T05:23:37;95575.63;;;5.33;65.03
43711;BME280;29309;42.682;23.372;2023-02-19T05:26:20;95583.31;;;5.34;65.12
43711;BME280;29309;42.682;23.372;2023-02-19T05:28:49;95587.91;;;5.32;65.42
43711;BME280;29309;42.682;23.372;2023-02-19T05:31:15;95581.00;;;5.40;64.95
43711;BME280;29309;42.682;23.372;2023-02-19T05:33:41;95589.25;;;5.40;64.94
43711;BME280;29309;42.682;23.372;2023-02-19T05:36:09;95601.75;;;5.41;65.05
43711;BME280;29309;42.682;23.372;2023-02-19T05:38:36;95606.22;;;5.46;64.79
43711;BME280;29309;42.682;23.372;2023-02-19T05:41:15;95612.34;;;5.55;64.62
43711;BME280;29309;42.682;23.372;2023-02-19T05:43:42;95610.63;;;5.59;64.75
43711;BME280;29309;42.682;23.372;2023-02-19T05:46:09;95613.63;;;5.54;65.22
43711;BME280;29309;42.682;23.372;2023-02-19T05:48:35;95609.91;;;5.59;64.95
43711;BME280;29309;42.682;23.372;2023-02-19T05:51:06;95611.38;;;5.69;64.73
43711;BME280;29309;42.682;23.372;2023-02-19T05:53:32;95605.59;;;5.75;64.73
43711;BME280;29309;42.682;23.372;2023-02-19T05:55:58;95611.25;;;5.77;64.35
43711;BME280;29309;42.682;23.372;2023-02-19T05:58:25;95610.97;;;5.82;64.54
43711;BME280;29309;42.682;23.372;2023-02-19T06:00:50;95623.78;;;5.97;64.10
43711;BME280;29309;42.682;23.372;2023-02-19T06:03:16;95622.94;;;6.14;63.98
43711;BME280;29309;42.682;23.372;2023-02-19T06:05:41;95627.28;;;6.26;63.40
43711;BME280;29309;42.682;23.372;2023-02-19T06:08:07;95625.28;;;6.46;63.13
43711;BME280;29309;42.682;23.372;2023-02-19T06:10:32;95629.63;;;6.68;62.42
43711;BME280;29309;42.682;23.372;2023-02-19T06:12:58;95636.13;;;6.92;62.18
43711;BME280;29309;42.682;23.372;2023-02-19T06:15:23;95639.13;;;7.15;61.60
43711;BME280;29309;42.682;23.372;2023-02-19T06:17:49;95639.94;;;7.37;61.10
43711;BME280;29309;42.682;23.372;2023-02-19T06:20:14;95639.28;;;7.58;59.89
43711;BME280;29309;42.682;23.372;2023-02-19T06:22:40;95631.63;;;7.77;58.81
43711;BME280;29309;42.682;23.372;2023-02-19T06:25:05;95636.19;;;7.94;57.68
43711;BME280;29309;42.682;23.372;2023-02-19T06:27:36;95641.34;;;8.09;57.48
43711;BME280;29309;42.682;23.372;2023-02-19T06:30:01;95633.38;;;8.25;56.92
43711;BME280;29309;42.682;23.372;2023-02-19T06:32:27;95633.88;;;8.43;55.84
43711;BME280;29309;42.682;23.372;2023-02-19T06:34:52;95636.81;;;8.56;56.12
43711;BME280;29309;42.682;23.372;2023-02-19T06:37:17;95639.88;;;8.72;55.29
43711;BME280;29309;42.682;23.372;2023-02-19T06:39:43;95640.66;;;8.84;54.99
43711;BME280;29309;42.682;23.372;2023-02-19T06:42:08;95642.84;;;8.97;54.89
43711;BME280;29309;42.682;23.372;2023-02-19T06:44:34;95638.22;;;9.11;54.41
43711;BME280;29309;42.682;23.372;2023-02-19T06:47:00;95638.63;;;9.29;53.69
43711;BME280;29309;42.682;23.372;2023-02-19T06:49:25;95650.34;;;9.51;53.24
43711;BME280;29309;42.682;23.372;2023-02-19T06:51:51;95651.78;;;9.75;52.76
43711;BME280;29309;42.682;23.372;2023-02-19T06:54:16;95653.22;;;9.99;51.98
43711;BME280;29309;42.682;23.372;2023-02-19T06:56:42;95649.25;;;10.25;51.49
43711;BME280;29309;42.682;23.372;2023-02-19T06:59:13;95648.09;;;10.54;50.76
43711;BME280;29309;42.682;23.372;2023-02-19T07:01:41;95659.59;;;10.85;49.21
43711;BME280;29309;42.682;23.372;2023-02-19T07:04:06;95665.47;;;11.16;48.76
43711;BME280;29309;42.682;23.372;2023-02-19T07:06:33;95668.25;;;11.42;47.54
43711;BME280;29309;42.682;23.372;2023-02-19T07:09:00;95661.09;;;11.64;46.98
43711;BME280;29309;42.682;23.372;2023-02-19T07:11:28;95654.88;;;11.91;46.20
43711;BME280;29309;42.682;23.372;2023-02-19T07:13:55;95651.69;;;12.23;45.62
43711;BME280;29309;42.682;23.372;2023-02-19T07:16:21;95662.56;;;12.60;43.60
43711;BME280;29309;42.682;23.372;2023-02-19T07:18:47;95648.59;;;12.88;43.55
43711;BME280;29309;42.682;23.372;2023-02-19T07:21:13;95646.66;;;13.19;44.37
43711;BME280;29309;42.682;23.372;2023-02-19T07:23:40;95643.38;;;13.54;43.44
43711;BME280;29309;42.682;23.372;2023-02-19T07:26:11;95636.56;;;13.89;41.33
43711;BME280;29309;42.682;23.372;2023-02-19T07:28:42;95625.53;;;14.08;41.05
43711;BME280;29309;42.682;23.372;2023-02-19T07:31:07;95629.34;;;14.48;39.89
43711;BME280;29309;42.682;23.372;2023-02-19T07:33:33;95627.25;;;14.82;39.98
43711;BME280;29309;42.682;23.372;2023-02-19T07:35:58;95616.31;;;15.06;38.62
43711;BME280;29309;42.682;23.372;2023-02-19T07:38:25;95620.06;;;15.30;38.65
43711;BME280;29309;42.682;23.372;2023-02-19T07:40:57;95619.00;;;15.57;37.40
43711;BME280;29309;42.682;23.372;2023-02-19T07:43:25;95614.44;;;15.85;37.13
43711;BME280;29309;42.682;23.372;2023-02-19T07:45:51;95623.25;;;16.17;36.02
43711;BME280;29309;42.682;23.372;2023-02-19T07:48:17;95613.41;;;16.36;35.66
43711;BME280;29309;42.682;23.372;2023-02-19T07:50:56;95615.06;;;16.62;37.26
43711;BME280;29309;42.682;23.372;2023-02-19T07:53:22;95612.59;;;16.94;34.91
43711;BME280;29309;42.682;23.372;2023-02-19T07:55:48;95613.75;;;17.09;37.78
43711;BME280;29309;42.682;23.372;2023-02-19T07:58:14;95616.03;;;17.36;37.51
43711;BME280;29309;42.682;23.372;2023-02-19T08:00:40;95622.63;;;17.68;34.95
43711;BME280;29309;42.682;23.372;2023-02-19T08:03:06;95623.00;;;18.06;33.72
43711;BME280;29309;42.682;23.372;2023-02-19T08:05:39;95622.34;;;18.34;31.95
43711;BME280;29309;42.682;23.372;2023-02-19T08:08:07;95616.53;;;18.51;33.08
43711;BME280;29309;42.682;23.372;2023-02-19T08:10:33;95609.34;;;18.74;31.34
43711;BME280;29309;42.682;23.372;2023-02-19T08:13:17;95612.81;;;19.00;31.36
43711;BME280;29309;42.682;23.372;2023-02-19T08:18:30;95611.09;;;19.47;30.52
43711;BME280;29309;42.682;23.372;2023-02-19T08:20:56;95614.38;;;19.67;30.23
43711;BME280;29309;42.682;23.372;2023-02-19T08:23:22;95620.50;;;19.89;29.52
43711;BME280;29309;42.682;23.372;2023-02-19T08:25:49;95620.44;;;19.87;29.65
43711;BME280;29309;42.682;23.372;2023-02-19T08:28:15;95613.88;;;19.77;30.20
43711;BME280;29309;42.682;23.372;2023-02-19T08:30:44;95617.50;;;19.81;29.29
43711;BME280;29309;42.682;23.372;2023-02-19T08:33:11;95603.81;;;20.01;29.24
43711;BME280;29309;42.682;23.372;2023-02-19T08:35:37;95613.44;;;19.88;28.98
43711;BME280;29309;42.682;23.372;2023-02-19T08:38:05;95612.06;;;19.91;33.14
43711;BME280;29309;42.682;23.372;2023-02-19T08:40:31;95610.28;;;20.08;31.93
43711;BME280;29309;42.682;23.372;2023-02-19T08:43:01;95610.25;;;20.06;31.77
43711;BME280;29309;42.682;23.372;2023-02-19T08:45:27;95600.66;;;20.19;31.38
43711;BME280;29309;42.682;23.372;2023-02-19T08:47:52;95597.63;;;20.09;30.34
43711;BME280;29309;42.682;23.372;2023-02-19T08:50:18;95597.47;;;20.01;28.95
43711;BME280;29309;42.682;23.372;2023-02-19T08:52:43;95589.81;;;19.72;29.14
43711;BME280;29309;42.682;23.372;2023-02-19T08:55:09;95587.47;;;19.60;30.67
43711;BME280;29309;42.682;23.372;2023-02-19T08:57:35;95586.75;;;19.59;29.93
43711;BME280;29309;42.682;23.372;2023-02-19T09:00:03;95583.72;;;19.49;29.98
43711;BME280;29309;42.682;23.372;2023-02-19T09:02:28;95582.41;;;19.54;31.02
43711;BME280;29309;42.682;23.372;2023-02-19T09:04:55;95569.78;;;19.55;29.83
43711;BME280;29309;42.682;23.372;2023-02-19T09:07:20;95570.34;;;19.50;31.25
43711;BME280;29309;42.682;23.372;2023-02-19T09:09:47;95569.03;;;19.53;29.71
43711;BME280;29309;42.682;23.372;2023-02-19T09:12:13;95565.50;;;19.54;31.05
43711;BME280;29309;42.682;23.372;2023-02-19T09:14:39;95561.31;;;19.55;29.96
43711;BME280;29309;42.682;23.372;2023-02-19T09:17:07;95557.91;;;19.29;30.77
43711;BME280;29309;42.682;23.372;2023-02-19T09:19:33;95543.00;;;19.25;30.79
43711;BME280;29309;42.682;23.372;2023-02-19T09:21:58;95541.91;;;19.06;30.49
43711;BME280;29309;42.682;23.372;2023-02-19T09:24:24;95544.22;;;19.15;30.71
43711;BME280;29309;42.682;23.372;2023-02-19T09:26:51;95536.81;;;19.30;30.66
43711;BME280;29309;42.682;23.372;2023-02-19T09:29:18;95541.56;;;19.53;30.69
43711;BME280;29309;42.682;23.372;2023-02-19T09:31:43;95546.94;;;19.75;30.49
43711;BME280;29309;42.682;23.372;2023-02-19T09:34:09;95535.00;;;19.77;30.63
43711;BME280;29309;42.682;23.372;2023-02-19T09:36:36;95545.34;;;19.34;30.83
43711;BME280;29309;42.682;23.372;2023-02-19T09:39:03;95539.25;;;19.44;31.14
43711;BME280;29309;42.682;23.372;2023-02-19T09:41:41;95543.16;;;18.99;31.65
43711;BME280;29309;42.682;23.372;2023-02-19T09:44:13;95536.16;;;18.70;32.11
43711;BME280;29309;42.682;23.372;2023-02-19T09:46:49;95543.09;;;18.67;32.75
43711;BME280;29309;42.682;23.372;2023-02-19T09:51:49;95533.38;;;18.72;32.36
43711;BME280;29309;42.682;23.372;2023-02-19T09:54:20;95527.94;;;18.80;32.83
43711;BME280;29309;42.682;23.372;2023-02-19T09:56:47;95529.53;;;18.87;32.53
43711;BME280;29309;42.682;23.372;2023-02-19T09:59:28;95522.69;;;18.96;32.14
43711;BME280;29309;42.682;23.372;2023-02-19T10:02:23;95507.44;;;19.05;31.69
43711;BME280;29309;42.682;23.372;2023-02-19T10:04:49;95503.47;;;19.18;31.71
43711;BME280;29309;42.682;23.372;2023-02-19T10:07:18;95493.44;;;19.09;31.62
43711;BME280;29309;42.682;23.372;2023-02-19T10:09:59;95484.72;;;18.97;32.45
43711;BME280;29309;42.682;23.372;2023-02-19T10:12:28;95488.56;;;18.80;31.30
43711;BME280;29309;42.682;23.372;2023-02-19T10:15:00;95482.13;;;18.76;31.67
43711;BME280;29309;42.682;23.372;2023-02-19T10:17:30;95472.44;;;18.83;31.23
43711;BME280;29309;42.682;23.372;2023-02-19T10:19:58;95468.06;;;18.76;31.29
43711;BME280;29309;42.682;23.372;2023-02-19T10:22:25;95469.97;;;18.67;31.58
43711;BME280;29309;42.682;23.372;2023-02-19T10:24:54;95454.91;;;18.54;31.22
43711;BME280;29309;42.682;23.372;2023-02-19T10:27:20;95450.06;;;18.57;31.18
43711;BME280;29309;42.682;23.372;2023-02-19T10:29:47;95442.72;;;18.46;31.46
43711;BME280;29309;42.682;23.372;2023-02-19T10:32:22;95447.41;;;18.35;31.89
43711;BME280;29309;42.682;23.372;2023-02-19T10:37:47;95429.97;;;18.41;31.84
43711;BME280;29309;42.682;23.372;2023-02-19T10:40:19;95426.06;;;18.52;31.32
43711;BME280;29309;42.682;23.372;2023-02-19T10:42:53;95420.31;;;18.48;30.73
43711;BME280;29309;42.682;23.372;2023-02-19T10:45:22;95414.97;;;18.60;32.91
43711;BME280;29309;42.682;23.372;2023-02-19T10:47:49;95409.53;;;18.68;31.56
43711;BME280;29309;42.682;23.372;2023-02-19T10:50:24;95394.28;;;18.77;30.86
43711;BME280;29309;42.682;23.372;2023-02-19T10:52:52;95402.75;;;18.79;30.81
43711;BME280;29309;42.682;23.372;2023-02-19T10:57:45;95390.59;;;18.71;30.51
43711;BME280;29309;42.682;23.372;2023-02-19T11:02:39;95380.38;;;18.85;31.56
43711;BME280;29309;42.682;23.372;2023-02-19T11:07:37;95371.84;;;19.15;30.10
43711;BME280;29309;42.682;23.372;2023-02-19T11:10:04;95373.47;;;19.26;29.69
43711;BME280;29309;42.682;23.372;2023-02-19T11:12:32;95364.34;;;19.28;31.52
43711;BME280;29309;42.682;23.372;2023-02-19T11:21:06;95351.72;;;18.61;30.22
43711;BME280;29309;42.682;23.372;2023-02-19T11:23:42;95339.13;;;18.64;30.39
43711;BME280;29309;42.682;23.372;2023-02-19T11:26:30;95341.94;;;18.64;30.15
43711;BME280;29309;42.682;23.372;2023-02-19T11:28:58;95331.22;;;18.54;30.31
43711;BME280;29309;42.682;23.372;2023-02-19T11:31:27;95331.38;;;18.62;30.31
43711;BME280;29309;42.682;23.372;2023-02-19T11:38:50;95313.84;;;18.64;30.49
43711;BME280;29309;42.682;23.372;2023-02-19T11:42:05;95305.38;;;18.62;30.07
43711;BME280;29309;42.682;23.372;2023-02-19T11:45:04;95310.28;;;18.61;30.12
43711;BME280;29309;42.682;23.372;2023-02-19T11:47:41;95293.69;;;18.76;30.12
43711;BME280;29309;42.682;23.372;2023-02-19T11:50:25;95293.31;;;18.93;30.43
43711;BME280;29309;42.682;23.372;2023-02-19T11:53:20;95289.84;;;19.33;29.35
43711;BME280;29309;42.682;23.372;2023-02-19T12:06:58;95253.84;;;20.67;27.42
43711;BME280;29309;42.682;23.372;2023-02-19T12:15:52;95250.94;;;22.01;24.35
43711;BME280;29309;42.682;23.372;2023-02-19T12:18:14;95248.25;;;22.24;24.79
43711;BME280;29309;42.682;23.372;2023-02-19T12:21:09;95241.19;;;22.27;24.19
43711;BME280;29309;42.682;23.372;2023-02-19T12:26:21;95225.56;;;22.16;24.21
43711;BME280;29309;42.682;23.372;2023-02-19T12:34:50;95206.13;;;22.92;22.76
43711;BME280;29309;42.682;23.372;2023-02-19T12:37:40;95204.00;;;22.95;24.07
43711;BME280;29309;42.682;23.372;2023-02-19T12:40:29;95187.69;;;22.87;22.62
43711;BME280;29309;42.682;23.372;2023-02-19T12:43:25;95186.34;;;23.23;23.27
43711;BME280;29309;42.682;23.372;2023-02-19T12:46:02;95184.25;;;23.49;22.55
43711;BME280;29309;42.682;23.372;2023-02-19T12:48:47;95175.69;;;23.15;22.40
43711;BME280;29309;42.682;23.372;2023-02-19T12:52:00;95166.97;;;22.36;23.18
43711;BME280;29309;42.682;23.372;2023-02-19T12:56:59;95155.41;;;19.77;27.17
43711;BME280;29309;42.682;23.372;2023-02-19T13:05:07;95147.81;;;18.98;29.01
43711;BME280;29309;42.682;23.372;2023-02-19T13:07:39;95137.63;;;18.77;29.23
43711;BME280;29309;42.682;23.372;2023-02-19T13:10:37;95137.31;;;18.60;29.42
43711;BME280;29309;42.682;23.372;2023-02-19T13:13:12;95139.28;;;18.52;29.16
43711;BME280;29309;42.682;23.372;2023-02-19T13:15:42;95130.53;;;18.38;29.71
43711;BME280;29309;42.682;23.372;2023-02-19T13:18:23;95131.69;;;18.25;29.86
43711;BME280;29309;42.682;23.372;2023-02-19T13:20:50;95133.53;;;18.10;30.17
43711;BME280;29309;42.682;23.372;2023-02-19T13:23:32;95126.34;;;18.03;29.87
43711;BME280;29309;42.682;23.372;2023-02-19T13:37:35;95099.03;;;17.72;30.36
43711;BME280;29309;42.682;23.372;2023-02-19T13:40:30;95096.88;;;17.70;30.34
43711;BME280;29309;42.682;23.372;2023-02-19T13:42:59;95095.41;;;17.65;30.36
43711;BME280;29309;42.682;23.372;2023-02-19T13:45:33;95093.97;;;17.64;30.08
43711;BME280;29309;42.682;23.372;2023-02-19T13:48:02;95099.66;;;17.68;30.37
43711;BME280;29309;42.682;23.372;2023-02-19T13:50:37;95093.28;;;17.65;29.99
43711;BME280;29309;42.682;23.372;2023-02-19T13:59:27;95087.50;;;17.57;30.33
43711;BME280;29309;42.682;23.372;2023-02-19T14:14:51;95067.59;;;17.47;30.31
43711;BME280;29309;42.682;23.372;2023-02-19T14:17:39;95076.66;;;17.44;30.71
43711;BME280;29309;42.682;23.372;2023-02-19T14:22:45;95069.63;;;17.43;30.48
43711;BME280;29309;42.682;23.372;2023-02-19T14:27:42;95062.63;;;17.44;30.39
43711;BME280;29309;42.682;23.372;2023-02-19T14:30:10;95056.97;;;17.42;30.21
43711;BME280;29309;42.682;23.372;2023-02-19T14:32:38;95061.16;;;17.41;30.48
43711;BME280;29309;42.682;23.372;2023-02-19T14:35:04;95058.44;;;17.45;30.18
43711;BME280;29309;42.682;23.372;2023-02-19T14:37:30;95048.63;;;17.46;30.88
43711;BME280;29309;42.682;23.372;2023-02-19T14:39:56;95055.69;;;17.47;31.46
43711;BME280;29309;42.682;23.372;2023-02-19T14:42:24;95054.13;;;17.40;33.16
43711;BME280;29309;42.682;23.372;2023-02-19T14:44:59;95040.75;;;17.38;32.48
43711;BME280;29309;42.682;23.372;2023-02-19T14:47:27;95040.66;;;17.34;32.66
43711;BME280;29309;42.682;23.372;2023-02-19T14:50:03;95037.69;;;17.26;32.56
43711;BME280;29309;42.682;23.372;2023-02-19T14:52:39;95033.47;;;17.25;32.49
43711;BME280;29309;42.682;23.372;2023-02-19T14:55:22;95041.22;;;17.27;32.50
43711;BME280;29309;42.682;23.372;2023-02-19T14:57:52;95036.41;;;17.31;32.19
43711;BME280;29309;42.682;23.372;2023-02-19T15:00:22;95039.94;;;17.34;32.11
43711;BME280;29309;42.682;23.372;2023-02-19T15:02:49;95034.34;;;17.34;32.39
43711;BME280;29309;42.682;23.372;2023-02-19T15:05:27;95029.31;;;17.28;32.49
43711;BME280;29309;42.682;23.372;2023-02-19T15:07:55;95032.69;;;17.22;33.33
43711;BME280;29309;42.682;23.372;2023-02-19T15:10:22;95033.31;;;17.19;32.97
43711;BME280;29309;42.682;23.372;2023-02-19T15:12:51;95034.53;;;17.10;32.82